Brave — NA29 — position and weather

sailwx.info

Track history (hours):
 
Tides and Currents Weather Stations Pressure Air Temp Water Temp Dewpoint Dewpoint Depression Visibility Wind Speed Wind Dir Waves Ship Positions

Brave

Last reported at 2017-Oct-26 22:24 UTC. Time now 2017-Nov-23 05:12 UTC.
Position N 38°59' W 076°29'.
Warning: this ship's position is 27 days out of date.

Length 14 m.

Type: Sailing vessel. MMSI: 369970069.

Date/timePositionNaut miles runAvg speedWind from/ knotsBaromVisibWave heightAir tempDewpointWater temp
2017-Oct-26 22:24N 38°59' W 076°29'1 1.4
2017-Oct-26 22:00N 38°59' W 076°28'0 0.7
2017-Oct-26 21:30N 38°58' W 076°28'1 1.1
2017-Oct-26 21:00N 38°59' W 076°28'0 0.3
2017-Oct-26 20:30N 38°59' W 076°28'  
2017-Oct-23 22:26N 38°59' W 076°29'2 3.6
2017-Oct-23 22:00N 38°58' W 076°27'0 0.6
2017-Oct-23 21:30N 38°58' W 076°28'0 0.2
2017-Oct-23 21:00N 38°58' W 076°28'0 0.1
2017-Oct-23 20:30N 38°58' W 076°28'1 0.0
2017-Oct-22 18:08N 38°59' W 076°29'0 3.2
2017-Oct-22 18:00N 38°59' W 076°28'3 6.7
2017-Oct-22 17:30N 38°56' W 076°26'0 0.2
2017-Oct-22 17:00N 38°56' W 076°26'0 0.9
2017-Oct-22 16:30N 38°55' W 076°26'0 0.6
2017-Oct-22 15:59N 38°55' W 076°26'1 1.7
2017-Oct-22 15:30N 38°56' W 076°26'0 0.5
2017-Oct-22 15:00N 38°56' W 076°26'0 0.6
2017-Oct-22 14:30N 38°56' W 076°26'0 0.6
2017-Oct-22 14:00N 38°56' W 076°26'3 6.5
2017-Oct-22 13:30N 38°59' W 076°28'0 0.0
2017-Oct-21 17:55N 38°59' W 076°29'2 4.1
2017-Oct-21 17:30N 38°58' W 076°27'2 4.3
2017-Oct-21 17:00N 38°56' W 076°26'1 1.0
2017-Oct-21 16:24N 38°55' W 076°26'0 0.3
2017-Oct-21 15:25N 38°55' W 076°26'1 2.1
2017-Oct-21 15:00N 38°56' W 076°26'0 0.6
2017-Oct-21 14:30N 38°56' W 076°26'4 0.2
2017-Oct-20 20:40N 38°59' W 076°29'0 3.1
2017-Oct-20 20:31N 38°59' W 076°28'2 3.3
2017-Oct-20 20:00N 38°58' W 076°26'1 2.0
2017-Oct-20 19:30N 38°58' W 076°25'1 2.6
2017-Oct-20 19:00N 38°58' W 076°26'2 4.6
2017-Oct-20 18:30N 38°59' W 076°29'0 0.0
2017-Oct-19 22:28N 38°59' W 076°29'2 3.8
2017-Oct-19 22:00N 38°58' W 076°27'3 4.8
2017-Oct-19 21:28N 38°55' W 076°26'2 4.4
2017-Oct-19 21:00N 38°57' W 076°26'3 5.6
2017-Oct-19 20:30N 38°59' W 076°29'0 0.3
2017-Oct-19 19:58N 38°59' W 076°29'0 0.0
2017-Oct-19 14:45N 38°59' W 076°29'0 0.0
2017-Oct-17 15:10N 38°59' W 076°29'0 1.5
2017-Oct-17 15:00N 38°59' W 076°28'0 0.6
2017-Oct-17 14:21N 38°59' W 076°28'0 0.4
2017-Oct-17 14:00N 38°59' W 076°28'  
Track history (hours):
 
Tides and Currents Weather Stations Pressure Air Temp Water Temp Dewpoint Dewpoint Depression Visibility Wind Speed Wind Dir Waves Ship Positions

Brave

Last reported at 2017-Oct-26 22:24 UTC. Time now 2017-Nov-23 05:12 UTC.
Position N 38°59' W 076°29'.
Warning: this ship's position is 27 days out of date.

Length 14 m.

Type: Sailing vessel. MMSI: 369970069.

Date/timePositionNaut miles runAvg speedWind from/ knotsBaromVisibWave heightAir tempDewpointWater temp
2017-Oct-26 22:24N 38°59' W 076°29'1 1.4
2017-Oct-26 22:00N 38°59' W 076°28'0 0.7
2017-Oct-26 21:30N 38°58' W 076°28'1 1.1
2017-Oct-26 21:00N 38°59' W 076°28'0 0.3
2017-Oct-26 20:30N 38°59' W 076°28'  
2017-Oct-23 22:26N 38°59' W 076°29'2 3.6
2017-Oct-23 22:00N 38°58' W 076°27'0 0.6
2017-Oct-23 21:30N 38°58' W 076°28'0 0.2
2017-Oct-23 21:00N 38°58' W 076°28'0 0.1
2017-Oct-23 20:30N 38°58' W 076°28'1 0.0
2017-Oct-22 18:08N 38°59' W 076°29'0 3.2
2017-Oct-22 18:00N 38°59' W 076°28'3 6.7
2017-Oct-22 17:30N 38°56' W 076°26'0 0.2
2017-Oct-22 17:00N 38°56' W 076°26'0 0.9
2017-Oct-22 16:30N 38°55' W 076°26'0 0.6
2017-Oct-22 15:59N 38°55' W 076°26'1 1.7
2017-Oct-22 15:30N 38°56' W 076°26'0 0.5
2017-Oct-22 15:00N 38°56' W 076°26'0 0.6
2017-Oct-22 14:30N 38°56' W 076°26'0 0.6
2017-Oct-22 14:00N 38°56' W 076°26'3 6.5
2017-Oct-22 13:30N 38°59' W 076°28'0 0.0
2017-Oct-21 17:55N 38°59' W 076°29'2 4.1
2017-Oct-21 17:30N 38°58' W 076°27'2 4.3
2017-Oct-21 17:00N 38°56' W 076°26'1 1.0
2017-Oct-21 16:24N 38°55' W 076°26'0 0.3
2017-Oct-21 15:25N 38°55' W 076°26'1 2.1
2017-Oct-21 15:00N 38°56' W 076°26'0 0.6
2017-Oct-21 14:30N 38°56' W 076°26'4 0.2
2017-Oct-20 20:40N 38°59' W 076°29'0 3.1
2017-Oct-20 20:31N 38°59' W 076°28'2 3.3
2017-Oct-20 20:00N 38°58' W 076°26'1 2.0
2017-Oct-20 19:30N 38°58' W 076°25'1 2.6
2017-Oct-20 19:00N 38°58' W 076°26'2 4.6
2017-Oct-20 18:30N 38°59' W 076°29'0 0.0
2017-Oct-19 22:28N 38°59' W 076°29'2 3.8
2017-Oct-19 22:00N 38°58' W 076°27'3 4.8
2017-Oct-19 21:28N 38°55' W 076°26'2 4.4
2017-Oct-19 21:00N 38°57' W 076°26'3 5.6
2017-Oct-19 20:30N 38°59' W 076°29'0 0.3
2017-Oct-19 19:58N 38°59' W 076°29'0 0.0
2017-Oct-19 14:45N 38°59' W 076°29'0 0.0
2017-Oct-17 15:10N 38°59' W 076°29'0 1.5
2017-Oct-17 15:00N 38°59' W 076°28'0 0.6
2017-Oct-17 14:21N 38°59' W 076°28'0 0.4
2017-Oct-17 14:00N 38°59' W 076°28'  

Dump ship's entire track history